ADDS METAR Data INFO
IDs: Format: Raw Decoded Include TAF

Data at: 1932 UTC 19 Jul 2018

KCOQ 191915Z AUTO 11008KT 10SM SCT090 24/16 A2982 RMK AO2 LTG DSNT NW
KCOQ 191855Z AUTO 10007KT 10SM CLR 25/16 A2983 RMK AO2
KCOQ 191835Z AUTO 11009KT 10SM CLR 25/17 A2983 RMK AO2 LTG DSNT S
KCOQ 191815Z AUTO 11006KT 10SM SCT090 24/17 A2983 RMK AO2
KCOQ 191755Z AUTO 11004KT 10SM SCT032 SCT046 BKN090 24/17 A2984 RMK AO2
KCOQ 191735Z AUTO 10005KT 10SM BKN075 BKN080 23/17 A2985 RMK AO2
KCOQ 191715Z AUTO 13006KT 10SM CLR 24/16 A2985 RMK AO2
KCOQ 191655Z AUTO 09008KT 10SM CLR 23/16 A2986 RMK AO2
KCOQ 191635Z AUTO 12008KT 7SM CLR 23/16 A2986 RMK AO2
KCOQ 191615Z AUTO 11007KT 10SM CLR 22/16 A2987 RMK AO2
KCOQ 191555Z AUTO 12004KT 10SM SCT050 22/16 A2987 RMK AO2
KCOQ 191535Z AUTO 12005KT 10SM SCT050 22/16 A2987 RMK AO2
KCOQ 191515Z AUTO 09005KT 10SM CLR 22/16 A2987 RMK AO2
KCOQ 191455Z AUTO 09006KT 10SM CLR 22/15 A2988 RMK AO2
KCOQ 191435Z AUTO 10004KT 10SM CLR 21/15 A2989 RMK AO2
KCOQ 191415Z AUTO 13005KT 10SM CLR 21/14 A2989 RMK AO2
KCOQ 191355Z AUTO 11005KT 10SM CLR 20/14 A2989 RMK AO2 LTG DSNT S
KCOQ 191335Z AUTO 11004KT 10SM CLR 19/14 A2989 RMK AO2
KCOQ 191315Z AUTO 10004KT 10SM CLR 18/14 A2989 RMK AO2
KCOQ 191255Z AUTO 10004KT 10SM CLR 18/14 A2990 RMK AO2
KCOQ 191235Z AUTO 09003KT 10SM CLR 17/14 A2990 RMK AO2
KCOQ 191215Z AUTO 09003KT 10SM CLR 17/13 A2991 RMK AO2
KCOQ 191155Z AUTO 00000KT 10SM CLR 16/13 A2991 RMK AO2 LTG DSNT S
KCOQ 191135Z AUTO 00000KT 10SM CLR 15/13 A2991 RMK AO2
KCOQ 191115Z AUTO 00000KT 10SM CLR 14/13 A2992 RMK AO2
KCOQ 191055Z AUTO 00000KT 10SM CLR 13/12 A2993 RMK AO2
KCOQ 191035Z AUTO 00000KT 10SM CLR 13/12 A2993 RMK AO2 LTG DSNT S
KCOQ 191015Z AUTO 00000KT 10SM CLR 13/11 A2994 RMK AO2
KCOQ 190955Z AUTO 00000KT 10SM CLR 13/12 A2994 RMK AO2
KCOQ 190935Z AUTO 00000KT 5SM BR CLR 13/11 A2994 RMK AO2
KCOQ 190915Z AUTO 00000KT 10SM CLR 13/12 A2994 RMK AO2
KCOQ 190856Z AUTO 00000KT 10SM CLR 14/12 A2995 RMK AO2
KCOQ 190835Z AUTO 00000KT 4SM BR CLR 14/12 A2995 RMK AO2
KCOQ 190815Z AUTO 00000KT 10SM CLR 14/12 A2996 RMK AO2
KCOQ 190755Z AUTO 00000KT 10SM CLR 14/13 A2996 RMK AO2
KCOQ 190735Z AUTO 00000KT 10SM CLR 14/13 A2997 RMK AO2
KCOQ 190715Z AUTO 00000KT 10SM CLR 15/13 A2996 RMK AO2 LTG DSNT S
KCOQ 190655Z AUTO 00000KT 10SM CLR 15/13 A2997 RMK AO2
KCOQ 190635Z AUTO 00000KT 10SM CLR 15/13 A2997 RMK AO2
KCOQ 190615Z AUTO 00000KT 10SM CLR 15/13 A2998 RMK AO2
KCOQ 190555Z AUTO 00000KT 10SM CLR 16/13 A2997 RMK AO2
KCOQ 190535Z AUTO 00000KT 10SM CLR 15/13 A2998 RMK AO2
KCOQ 190515Z AUTO 00000KT 10SM CLR 16/13 A2998 RMK AO2
KCOQ 190455Z AUTO 00000KT 10SM CLR 16/13 A2999 RMK AO2
KCOQ 190435Z AUTO 00000KT 10SM CLR 17/13 A2999 RMK AO2
KCOQ 190415Z AUTO 00000KT 10SM CLR 17/14 A2999 RMK AO2
KCOQ 190355Z AUTO 00000KT 10SM CLR 18/14 A2999 RMK AO2
KCOQ 190335Z AUTO 00000KT 10SM CLR 18/14 A2999 RMK AO2
KCOQ 190315Z AUTO 00000KT 10SM CLR 18/14 A2999 RMK AO2
KCOQ 190255Z AUTO 00000KT 10SM CLR 19/13 A2999 RMK AO2
KCOQ 190235Z AUTO 00000KT 10SM CLR 19/14 A3000 RMK AO2
KCOQ 190215Z AUTO 00000KT 10SM CLR 20/14 A2999 RMK AO2
KCOQ 190155Z AUTO 00000KT 10SM CLR 21/14 A2999 RMK AO2
KCOQ 190135Z AUTO 00000KT 10SM CLR 21/14 A2999 RMK AO2
KCOQ 190115Z AUTO 00000KT 10SM CLR 22/14 A2999 RMK AO2
KCOQ 190055Z AUTO 00000KT 10SM CLR 22/14 A3000 RMK AO2
KCOQ 190035Z AUTO 00000KT 10SM CLR 23/13 A3000 RMK AO2
KCOQ 190015Z AUTO 00000KT 10SM CLR 23/13 A3001 RMK AO2
KCOQ 182355Z AUTO 00000KT 10SM CLR 23/13 A3001 RMK AO2
KCOQ 182335Z AUTO 19005KT 10SM CLR 24/12 A3002 RMK AO2
KCOQ 182316Z AUTO 17005KT 10SM CLR 25/11 A3002 RMK AO2
KCOQ 182255Z AUTO 17005KT 10SM CLR 26/11 A3003 RMK AO2
KCOQ 182235Z AUTO 21005KT 10SM CLR 26/11 A3003 RMK AO2
KCOQ 182215Z AUTO 18006KT 10SM CLR 26/11 A3003 RMK AO2
KCOQ 182155Z AUTO 20005KT 10SM CLR 26/11 A3004 RMK AO2
KCOQ 182135Z AUTO 25005KT 10SM CLR 26/11 A3004 RMK AO2
KCOQ 182115Z AUTO 24003KT 10SM SCT050 26/10 A3005 RMK AO2
KCOQ 182055Z AUTO 21005KT 10SM SCT050 26/10 A3006 RMK AO2
KCOQ 182035Z AUTO 18004KT 10SM CLR 25/10 A3006 RMK AO2
KCOQ 182015Z AUTO 17005KT 10SM CLR 26/11 A3006 RMK AO2
KCOQ 181955Z AUTO 00000KT 10SM SCT050 26/11 A3006 RMK AO2
KCOQ 181935Z AUTO 19006KT 10SM SCT050 25/11 A3006 RMK AO2
KCOQ 181915Z AUTO 00000KT 10SM SCT048 25/11 A3006 RMK AO2
KCOQ 181855Z AUTO 22004KT 10SM SCT048 25/11 A3007 RMK AO2
KCOQ 181836Z AUTO 19003KT 10SM CLR 24/11 A3007 RMK AO2
KCOQ 181835Z AUTO 18003KT 10SM CLR 24/11 A3007 RMK AO2
KCOQ 181815Z AUTO 19006KT 10SM SCT048 24/11 A3008 RMK AO2
KCOQ 181755Z AUTO 19005KT 10SM SCT048 24/12 A3008 RMK AO2
KCOQ 181735Z AUTO 26005KT 10SM SCT046 24/12 A3009 RMK AO2
KCOQ 181715Z AUTO 19006KT 10SM BKN046 23/11 A3010 RMK AO2
KCOQ 181655Z AUTO 20007KT 10SM SCT046 24/11 A3011 RMK AO2
KCOQ 181635Z AUTO 21007KT 172V232 10SM 24/11 A3011 RMK AO2
KCOQ 181621Z AUTO 19007KT 24/11 A3011 RMK AO2 PWINO
KCOQ 181516Z AUTO 20007KT 10SM CLR 23/11 A3012 RMK AO2
KCOQ 181515Z AUTO 20007KT 10SM CLR 23/11 A3012 RMK AO2
KCOQ 181455Z AUTO 22005KT 10SM CLR 22/12 A3012 RMK AO2
KCOQ 181435Z AUTO 21006KT 10SM CLR 22/11 A3013 RMK AO2
KCOQ 181415Z AUTO 23007KT 10SM CLR 21/11 A3013 RMK AO2
KCOQ 181355Z AUTO 21004KT 10SM CLR 20/12 A3014 RMK AO2
KCOQ 181335Z AUTO 22008KT 10SM CLR 19/12 A3014 RMK AO2
KCOQ 181315Z AUTO 21005KT 10SM CLR 18/12 A3014 RMK AO2
KCOQ 181255Z AUTO 22004KT 10SM CLR 17/12 A3014 RMK AO2
KCOQ 181235Z AUTO 21004KT 10SM CLR 16/12 A3014 RMK AO2
KCOQ 181215Z AUTO 21003KT 10SM CLR 15/12 A3014 RMK AO2
KCOQ 181155Z AUTO 00000KT 10SM SCT049 14/12 A3014 RMK AO2
KCOQ 181135Z AUTO 00000KT 10SM SCT049 11/09 A3014 RMK AO2
KCOQ 181115Z AUTO 00000KT 10SM CLR 10/08 A3014 RMK AO2
KCOQ 181055Z AUTO 00000KT 10SM CLR 09/08 A3014 RMK AO2
KCOQ 181035Z AUTO 00000KT 10SM CLR 09/08 A3014 RMK AO2
KCOQ 181015Z AUTO 00000KT 10SM CLR 09/08 A3013 RMK AO2
KCOQ 180955Z AUTO 00000KT 10SM CLR 09/08 A3014 RMK AO2
KCOQ 180935Z AUTO 00000KT 10SM CLR 09/08 A3013 RMK AO2
KCOQ 180915Z AUTO 00000KT 10SM CLR 10/08 A3013 RMK AO2
KCOQ 180855Z AUTO 00000KT 10SM CLR 11/09 A3012 RMK AO2
KCOQ 180835Z AUTO 00000KT 10SM CLR 11/08 A3012 RMK AO2
KCOQ 180815Z AUTO 00000KT 10SM CLR 11/09 A3012 RMK AO2
KCOQ 180755Z AUTO 00000KT 10SM CLR 11/09 A3012 RMK AO2
KCOQ 180735Z AUTO 00000KT 10SM CLR 11/09 A3012 RMK AO2